createdAt,value
2018-08-13T00:00:33.112Z,96277.00
2018-08-13T00:03:03.304Z,96280.00
2018-08-13T00:05:33.431Z,96267.00
2018-08-13T00:08:03.596Z,96267.00
2018-08-13T00:10:33.695Z,96269.00
2018-08-13T00:13:03.868Z,96256.00
2018-08-13T00:15:33.995Z,96260.00
2018-08-13T00:18:04.283Z,96249.00
2018-08-13T00:20:34.431Z,96246.00
2018-08-13T00:23:04.587Z,96251.00
2018-08-13T00:25:35.012Z,96248.00
2018-08-13T00:28:06.556Z,96256.00
2018-08-13T00:30:36.891Z,96261.00
2018-08-13T00:33:08.788Z,96248.00
2018-08-13T00:35:39.039Z,96247.00
2018-08-13T00:38:09.236Z,96253.00
2018-08-13T00:40:39.420Z,96255.00
2018-08-13T00:43:09.639Z,96249.00
2018-08-13T00:45:39.805Z,96250.00
2018-08-13T00:48:09.943Z,96244.00
2018-08-13T00:50:40.073Z,96242.00
2018-08-13T00:53:10.571Z,96243.00
2018-08-13T00:55:40.679Z,96238.00
2018-08-13T00:58:10.787Z,96241.00
2018-08-13T01:00:40.978Z,96243.00
2018-08-13T01:03:11.116Z,96242.00
2018-08-13T01:05:41.302Z,96238.00
2018-08-13T01:08:11.448Z,96235.00
2018-08-13T01:10:41.640Z,96230.00
2018-08-13T01:13:11.812Z,96228.00
2018-08-13T01:15:41.990Z,96220.00
2018-08-13T01:18:12.130Z,96227.00
2018-08-13T01:20:42.236Z,96222.00
2018-08-13T01:23:12.406Z,96205.00
2018-08-13T01:25:42.543Z,96199.00
2018-08-13T01:28:12.652Z,96199.00
2018-08-13T01:30:42.793Z,96194.00
2018-08-13T01:33:12.924Z,96189.00
2018-08-13T01:35:43.036Z,96204.00
2018-08-13T01:38:13.120Z,96193.00
2018-08-13T01:40:43.227Z,96194.00
2018-08-13T01:43:13.358Z,96188.00
2018-08-13T01:45:43.465Z,96181.00
2018-08-13T01:48:13.588Z,96184.00
2018-08-13T01:50:44.048Z,96179.00
2018-08-13T01:53:14.155Z,96171.00
2018-08-13T01:55:44.303Z,96170.00
2018-08-13T01:58:14.415Z,96165.00
2018-08-13T02:00:44.913Z,96172.00
2018-08-13T02:03:14.991Z,96160.00
2018-08-13T02:05:45.156Z,96159.00
2018-08-13T02:08:15.264Z,96158.00
2018-08-13T02:10:45.382Z,96157.00
2018-08-13T02:13:15.560Z,96169.00
2018-08-13T02:15:45.698Z,96149.00
2018-08-13T02:18:17.592Z,96146.00
2018-08-13T02:20:47.700Z,96144.00
2018-08-13T02:23:17.835Z,96133.00
2018-08-13T02:25:47.996Z,96148.00
2018-08-13T02:28:18.164Z,96138.00
2018-08-13T02:30:48.307Z,96131.00
2018-08-13T02:33:18.494Z,96130.00
2018-08-13T02:35:48.647Z,96122.00
2018-08-13T02:38:18.768Z,96123.00
2018-08-13T02:40:48.920Z,96123.00
2018-08-13T02:43:19.043Z,96122.00
2018-08-13T02:45:49.160Z,96125.00
2018-08-13T02:48:23.692Z,96119.00
2018-08-13T02:50:53.844Z,96129.00
2018-08-13T02:53:23.936Z,96124.00
2018-08-13T02:55:54.084Z,96120.00
2018-08-13T02:58:24.168Z,96118.00
2018-08-13T03:00:54.406Z,96124.00
2018-08-13T03:03:24.575Z,96112.00
2018-08-13T03:05:54.677Z,96125.00
2018-08-13T03:08:24.781Z,96117.00
2018-08-13T03:10:54.885Z,96124.00
2018-08-13T03:13:25.017Z,96119.00
2018-08-13T03:15:55.140Z,96119.00
2018-08-13T03:18:25.267Z,96119.00
2018-08-13T03:20:55.408Z,96105.00
2018-08-13T03:23:25.508Z,96100.00
2018-08-13T03:25:55.692Z,96107.00
2018-08-13T03:28:25.838Z,96104.00
2018-08-13T03:30:56.206Z,96101.00
2018-08-13T03:33:26.357Z,96103.00
2018-08-13T03:35:56.508Z,96112.00
2018-08-13T03:38:26.692Z,96114.00
2018-08-13T03:40:56.812Z,96111.00
2018-08-13T03:43:27.000Z,96100.00
2018-08-13T03:45:57.109Z,96108.00
2018-08-13T03:48:27.232Z,96105.00
2018-08-13T03:50:57.365Z,96103.00
2018-08-13T03:53:27.593Z,96103.00
2018-08-13T03:55:57.766Z,96101.00
2018-08-13T03:58:27.934Z,96098.00
2018-08-13T04:00:58.089Z,96096.00
2018-08-13T04:03:28.220Z,96095.00
2018-08-13T04:05:58.425Z,96099.00
2018-08-13T04:08:28.657Z,96102.00
2018-08-13T04:10:58.825Z,96098.00
2018-08-13T04:13:29.029Z,96092.00
2018-08-13T04:15:59.227Z,96087.00
2018-08-13T04:18:29.373Z,96078.00
2018-08-13T04:20:59.544Z,96087.00
2018-08-13T04:23:29.728Z,96086.00
2018-08-13T04:25:59.891Z,96078.00
2018-08-13T04:28:30.048Z,96081.00
2018-08-13T04:31:00.172Z,96079.00
2018-08-13T04:33:30.321Z,96078.00
2018-08-13T04:36:00.490Z,96084.00
2018-08-13T04:38:30.688Z,96084.00
2018-08-13T04:41:00.761Z,96085.00
2018-08-13T04:43:30.868Z,96078.00
2018-08-13T04:46:00.990Z,96078.00
2018-08-13T04:48:31.173Z,96081.00
2018-08-13T04:51:01.335Z,96085.00
2018-08-13T04:53:31.472Z,96082.00
2018-08-13T04:56:01.613Z,96084.00
2018-08-13T04:58:31.740Z,96081.00
2018-08-13T05:01:01.908Z,96087.00
2018-08-13T05:03:31.993Z,96088.00
2018-08-13T05:06:02.246Z,96095.00
2018-08-13T05:08:32.408Z,96085.00
2018-08-13T05:11:03.430Z,96090.00
2018-08-13T05:13:33.560Z,96092.00
2018-08-13T05:16:03.731Z,96091.00
2018-08-13T05:18:34.819Z,96093.00
2018-08-13T05:21:05.232Z,96090.00
2018-08-13T05:23:35.389Z,96088.00
2018-08-13T05:26:05.548Z,96087.00
2018-08-13T05:28:35.802Z,96088.00
2018-08-13T05:31:05.957Z,96085.00
2018-08-13T05:33:36.125Z,96079.00
2018-08-13T05:36:06.552Z,96078.00
2018-08-13T05:38:36.722Z,96078.00
2018-08-13T05:41:06.942Z,96080.00
2018-08-13T05:43:37.199Z,96080.00
2018-08-13T05:46:07.373Z,96081.00
2018-08-13T05:48:37.511Z,96091.00
2018-08-13T05:51:07.749Z,96089.00
2018-08-13T05:53:37.971Z,96091.00
2018-08-13T05:56:08.204Z,96093.00
2018-08-13T05:58:38.401Z,96092.00
2018-08-13T06:01:08.993Z,96093.00
2018-08-13T06:03:39.201Z,96099.00
2018-08-13T06:06:09.337Z,96099.00
2018-08-13T06:08:39.500Z,96096.00
2018-08-13T06:11:09.688Z,96098.00
2018-08-13T06:13:39.798Z,96099.00
2018-08-13T06:16:09.921Z,96106.00
2018-08-13T06:18:40.091Z,96097.00
2018-08-13T06:21:10.317Z,96101.00
2018-08-13T06:23:40.521Z,96097.00
2018-08-13T06:26:11.485Z,96103.00
2018-08-13T06:28:41.658Z,96098.00
2018-08-13T06:31:11.909Z,96103.00
2018-08-13T06:33:42.138Z,96102.00
2018-08-13T06:36:12.388Z,96101.00
2018-08-13T06:38:42.517Z,96102.00
2018-08-13T06:41:12.711Z,96100.00
2018-08-13T06:43:43.007Z,96103.00
2018-08-13T06:46:13.324Z,96100.00
2018-08-13T06:48:43.520Z,96099.00
2018-08-13T06:51:13.744Z,96096.00
2018-08-13T06:53:43.886Z,96098.00
2018-08-13T06:56:14.030Z,96104.00
2018-08-13T06:58:44.169Z,96098.00
2018-08-13T07:01:14.364Z,96096.00
2018-08-13T07:03:44.600Z,96097.00
2018-08-13T07:06:16.236Z,96101.00
2018-08-13T07:08:46.380Z,96102.00
2018-08-13T07:11:16.535Z,96093.00
2018-08-13T07:13:46.710Z,96091.00
2018-08-13T07:16:16.912Z,96096.00
2018-08-13T07:18:47.091Z,96099.00
2018-08-13T07:21:17.239Z,96092.00
2018-08-13T07:23:47.437Z,96088.00
2018-08-13T07:26:17.574Z,96083.00
2018-08-13T07:28:54.522Z,96084.00
2018-08-13T07:31:24.665Z,96081.00
2018-08-13T07:33:55.174Z,96083.00
2018-08-13T07:36:25.311Z,96086.00
2018-08-13T07:38:55.542Z,96080.00
2018-08-13T07:41:25.716Z,96085.00
2018-08-13T07:43:55.926Z,96089.00
2018-08-13T07:46:26.146Z,96084.00
2018-08-13T07:48:56.428Z,96085.00
2018-08-13T07:51:26.576Z,96090.00
2018-08-13T07:53:56.696Z,96086.00
2018-08-13T07:56:26.929Z,96089.00
2018-08-13T07:58:57.135Z,96093.00
2018-08-13T08:01:27.395Z,96096.00
2018-08-13T08:03:57.556Z,96094.00
2018-08-13T08:06:27.725Z,96096.00
2018-08-13T08:08:57.882Z,96102.00
2018-08-13T08:11:28.084Z,96104.00
2018-08-13T08:13:58.289Z,96098.00
2018-08-13T08:16:28.499Z,96105.00
2018-08-13T08:18:58.630Z,96099.00
2018-08-13T08:21:28.868Z,96103.00
2018-08-13T08:23:58.970Z,96096.00
2018-08-13T08:26:29.209Z,96092.00
2018-08-13T08:28:59.367Z,96094.00
2018-08-13T08:31:29.620Z,96091.00
2018-08-13T08:33:59.782Z,96096.00
2018-08-13T08:36:30.253Z,96095.00
2018-08-13T08:39:00.428Z,96095.00
2018-08-13T08:41:30.600Z,96094.00
2018-08-13T08:44:00.765Z,96093.00
2018-08-13T08:46:30.944Z,96095.00
2018-08-13T08:49:01.224Z,96098.00
2018-08-13T08:51:31.377Z,96091.00
2018-08-13T08:54:01.528Z,96095.00
2018-08-13T08:56:31.737Z,96099.00
2018-08-13T08:59:01.957Z,96092.00
2018-08-13T09:01:32.258Z,96092.00
2018-08-13T09:04:02.540Z,96091.00
2018-08-13T09:06:32.728Z,96088.00
2018-08-13T09:09:02.937Z,96088.00
2018-08-13T09:11:33.088Z,96093.00
2018-08-13T09:14:03.427Z,96083.00
2018-08-13T09:16:33.743Z,96082.00
2018-08-13T09:19:20.710Z,96078.00
2018-08-13T09:21:54.533Z,96079.00
2018-08-13T09:24:41.504Z,96081.00
2018-08-13T09:27:28.522Z,96072.00
2018-08-13T09:30:15.601Z,96075.00
2018-08-13T09:34:04.416Z,96075.00
2018-08-13T09:36:34.662Z,96067.00
2018-08-13T09:39:09.492Z,96067.00
2018-08-13T09:41:39.649Z,96070.00
2018-08-13T09:44:09.796Z,96068.00
2018-08-13T09:46:39.953Z,96069.00
2018-08-13T09:49:10.118Z,96071.00
2018-08-13T09:51:40.282Z,96066.00
2018-08-13T09:54:10.599Z,96063.00
2018-08-13T09:56:40.705Z,96059.00
2018-08-13T09:59:10.849Z,96061.00
2018-08-13T10:01:40.996Z,96048.00
2018-08-13T10:04:11.136Z,96055.00
2018-08-13T10:06:41.275Z,96051.00
2018-08-13T10:09:11.526Z,96056.00
2018-08-13T10:11:41.649Z,96045.00
2018-08-13T10:14:11.776Z,96049.00
2018-08-13T10:16:42.159Z,96040.00
2018-08-13T10:19:12.257Z,96045.00
2018-08-13T10:21:42.396Z,96047.00
2018-08-13T10:24:12.542Z,96055.00
2018-08-13T10:26:42.647Z,96045.00
2018-08-13T10:29:12.749Z,96047.00
2018-08-13T10:31:42.876Z,96036.00
2018-08-13T10:34:13.054Z,96037.00
2018-08-13T10:36:43.213Z,96038.00
2018-08-13T10:39:13.772Z,96046.00
2018-08-13T10:41:43.999Z,96045.00
2018-08-13T10:44:14.165Z,96041.00
2018-08-13T10:46:44.365Z,96034.00
2018-08-13T10:49:14.512Z,96042.00
2018-08-13T10:51:44.714Z,96036.00
2018-08-13T10:54:14.845Z,96036.00
2018-08-13T10:56:44.996Z,96028.00
2018-08-13T10:59:15.201Z,96033.00
2018-08-13T11:01:45.301Z,96032.00
2018-08-13T11:04:15.596Z,96028.00
2018-08-13T11:06:45.748Z,96024.00
2018-08-13T11:09:15.948Z,96016.00
2018-08-13T11:11:46.108Z,96017.00
2018-08-13T11:14:16.219Z,96023.00
2018-08-13T11:16:46.373Z,96016.00
2018-08-13T11:19:16.677Z,96009.00
2018-08-13T11:21:46.920Z,96013.00
2018-08-13T11:24:16.976Z,96011.00
2018-08-13T11:26:47.116Z,96003.00
2018-08-13T11:29:17.293Z,95997.00
2018-08-13T11:31:47.436Z,96000.00
2018-08-13T11:34:17.572Z,95992.00
2018-08-13T11:36:47.719Z,95993.00
2018-08-13T11:39:17.868Z,95996.00
2018-08-13T11:41:47.985Z,95988.00
2018-08-13T11:44:18.168Z,95986.00
2018-08-13T11:46:48.323Z,95985.00
2018-08-13T11:49:18.475Z,95976.00
2018-08-13T11:51:48.649Z,95980.00
2018-08-13T11:54:18.799Z,95979.00
2018-08-13T11:56:48.972Z,95978.00
2018-08-13T11:59:24.841Z,95975.00
2018-08-13T12:01:55.025Z,95979.00
2018-08-13T12:04:25.096Z,95966.00
2018-08-13T12:06:55.260Z,95966.00
2018-08-13T12:09:25.364Z,95961.00
2018-08-13T12:11:55.605Z,95967.00
2018-08-13T12:14:25.736Z,95961.00
2018-08-13T12:16:55.892Z,95962.00
2018-08-13T12:19:26.106Z,95958.00
2018-08-13T12:21:56.236Z,95965.00
2018-08-13T12:24:26.422Z,95959.00
2018-08-13T12:26:56.569Z,95955.00
2018-08-13T12:29:26.684Z,95954.00
2018-08-13T12:31:56.805Z,95945.00
2018-08-13T12:34:26.913Z,95949.00
2018-08-13T12:37:02.444Z,95946.00
2018-08-13T12:39:33.058Z,95933.00
2018-08-13T12:42:03.324Z,95923.00
2018-08-13T12:44:33.467Z,95919.00
2018-08-13T12:47:03.656Z,95927.00
2018-08-13T12:49:34.001Z,95926.00
2018-08-13T12:52:04.325Z,95911.00
2018-08-13T12:54:34.502Z,95909.00
2018-08-13T12:57:05.075Z,95907.00
2018-08-13T12:59:35.215Z,95900.00
2018-08-13T13:02:05.363Z,95904.00
2018-08-13T13:04:35.568Z,95901.00
2018-08-13T13:07:05.828Z,95898.00
2018-08-13T13:09:36.136Z,95895.00
2018-08-13T13:12:06.358Z,95894.00
2018-08-13T13:14:36.622Z,95886.00
2018-08-13T13:17:06.765Z,95892.00
2018-08-13T13:19:36.912Z,95892.00
2018-08-13T13:22:07.056Z,95889.00
2018-08-13T13:24:37.201Z,95880.00
2018-08-13T13:27:07.388Z,95870.00
2018-08-13T13:29:37.541Z,95874.00
2018-08-13T13:32:07.800Z,95882.00
2018-08-13T13:34:37.976Z,95871.00
2018-08-13T13:37:08.255Z,95871.00
2018-08-13T13:39:38.360Z,95865.00
2018-08-13T13:42:08.641Z,95860.00
2018-08-13T13:44:38.811Z,95860.00
2018-08-13T13:47:08.957Z,95864.00
2018-08-13T13:49:39.110Z,95861.00
2018-08-13T13:52:09.308Z,95861.00
2018-08-13T13:54:39.417Z,95850.00
2018-08-13T13:57:09.767Z,95856.00
2018-08-13T13:59:39.872Z,95846.00
2018-08-13T14:02:10.069Z,95838.00
2018-08-13T14:04:40.196Z,95843.00
2018-08-13T14:07:10.411Z,95837.00
2018-08-13T14:09:40.579Z,95842.00
2018-08-13T14:12:10.708Z,95840.00
2018-08-13T14:14:40.840Z,95832.00
2018-08-13T14:17:10.976Z,95835.00
2018-08-13T14:19:41.112Z,95836.00
2018-08-13T14:22:11.264Z,95824.00
2018-08-13T14:24:41.407Z,95821.00
2018-08-13T14:27:11.595Z,95825.00
2018-08-13T14:29:41.800Z,95816.00
2018-08-13T14:32:11.912Z,95798.00
2018-08-13T14:34:42.136Z,95799.00
2018-08-13T14:37:12.225Z,95797.00
2018-08-13T14:39:42.361Z,95792.00
2018-08-13T14:42:12.591Z,95796.00
2018-08-13T14:44:42.691Z,95790.00
2018-08-13T14:47:12.830Z,95781.00
2018-08-13T14:49:42.955Z,95785.00
2018-08-13T14:52:13.149Z,95786.00
2018-08-13T14:54:43.268Z,95789.00
2018-08-13T14:57:13.456Z,95774.00
2018-08-13T14:59:43.612Z,95776.00
2018-08-13T15:02:13.732Z,95771.00
2018-08-13T15:04:43.960Z,95764.00
2018-08-13T15:07:14.097Z,95761.00
2018-08-13T15:09:44.225Z,95759.00
2018-08-13T15:12:14.428Z,95761.00
2018-08-13T15:14:44.517Z,95756.00
2018-08-13T15:17:14.704Z,95746.00
2018-08-13T15:19:44.864Z,95757.00
2018-08-13T15:22:15.060Z,95745.00
2018-08-13T15:24:45.184Z,95753.00
2018-08-13T15:27:15.421Z,95740.00
2018-08-13T15:29:45.483Z,95729.00
2018-08-13T15:32:15.621Z,95734.00
2018-08-13T15:34:45.744Z,95732.00
2018-08-13T15:37:15.844Z,95723.00
2018-08-13T15:39:46.028Z,95722.00
2018-08-13T15:42:16.165Z,95720.00
2018-08-13T15:44:46.274Z,95733.00
2018-08-13T15:47:16.417Z,95718.00
2018-08-13T15:49:46.549Z,95727.00
2018-08-13T15:52:16.692Z,95718.00
2018-08-13T15:54:46.861Z,95716.00
2018-08-13T15:57:16.975Z,95709.00
2018-08-13T15:59:47.140Z,95714.00
2018-08-13T16:02:17.305Z,95723.00
2018-08-13T16:04:47.495Z,95717.00
2018-08-13T16:07:17.609Z,95717.00
2018-08-13T16:09:47.777Z,95708.00
2018-08-13T16:12:17.900Z,95709.00
2018-08-13T16:14:49.088Z,95705.00
2018-08-13T16:17:19.443Z,95707.00
2018-08-13T16:19:49.615Z,95709.00
2018-08-13T16:22:19.889Z,95708.00
2018-08-13T16:24:50.025Z,95707.00
2018-08-13T16:27:20.169Z,95700.00
2018-08-13T16:29:50.752Z,95706.00
2018-08-13T16:32:20.893Z,95700.00
2018-08-13T16:34:51.448Z,95709.00
2018-08-13T16:37:21.901Z,95715.00
2018-08-13T16:39:52.022Z,95720.00
2018-08-13T16:42:22.168Z,95723.00
2018-08-13T16:44:52.564Z,95717.00
2018-08-13T16:47:22.717Z,95726.00
2018-08-13T16:49:52.832Z,95721.00
2018-08-13T16:52:23.209Z,95734.00
2018-08-13T16:54:53.404Z,95724.00
2018-08-13T16:57:23.533Z,95727.00
2018-08-13T16:59:53.677Z,95734.00
2018-08-13T17:02:24.040Z,95730.00
2018-08-13T17:04:54.290Z,95722.00
2018-08-13T17:07:24.527Z,95716.00
2018-08-13T17:09:54.676Z,95711.00
2018-08-13T17:12:25.093Z,95714.00
2018-08-13T17:14:55.544Z,95715.00
2018-08-13T17:17:25.721Z,95705.00
2018-08-13T17:19:56.233Z,95702.00
2018-08-13T17:22:26.537Z,95697.00
2018-08-13T17:24:56.715Z,95703.00
2018-08-13T17:27:27.005Z,95701.00
2018-08-13T17:29:57.289Z,95695.00
2018-08-13T17:32:27.494Z,95700.00
2018-08-13T17:34:57.662Z,95690.00
2018-08-13T17:37:27.831Z,95695.00
2018-08-13T17:39:57.997Z,95684.00
2018-08-13T17:42:28.382Z,95689.00
2018-08-13T17:44:58.509Z,95684.00
2018-08-13T17:47:28.793Z,95691.00
2018-08-13T17:49:59.001Z,95688.00
2018-08-13T17:52:29.229Z,95690.00
2018-08-13T17:54:59.600Z,95689.00
2018-08-13T17:57:29.803Z,95689.00
2018-08-13T18:00:00.157Z,95689.00
2018-08-13T18:02:30.753Z,95699.00
2018-08-13T18:05:00.858Z,95700.00
2018-08-13T18:07:31.113Z,95697.00
2018-08-13T18:10:01.249Z,95704.00
2018-08-13T18:12:31.432Z,95698.00
2018-08-13T18:15:01.822Z,95693.00
2018-08-13T18:17:31.998Z,95697.00
2018-08-13T18:20:02.161Z,95701.00
2018-08-13T18:22:32.337Z,95691.00
2018-08-13T18:25:02.887Z,95692.00
2018-08-13T18:27:33.004Z,95699.00
2018-08-13T18:30:03.573Z,95695.00
2018-08-13T18:32:34.120Z,95699.00
2018-08-13T18:35:04.912Z,95694.00
2018-08-13T18:37:35.642Z,95692.00
2018-08-13T18:40:10.687Z,95702.00
2018-08-13T19:01:26.027Z,95710.00
2018-08-13T19:04:02.486Z,95717.00
2018-08-13T19:06:38.288Z,95721.00
2018-08-13T19:09:14.084Z,95726.00
2018-08-13T19:11:50.383Z,95725.00
2018-08-13T19:14:25.972Z,95726.00
2018-08-13T19:17:01.581Z,95721.00
2018-08-13T19:19:31.948Z,95727.00
2018-08-13T19:22:02.449Z,95729.00
2018-08-13T19:24:32.747Z,95735.00
2018-08-13T19:27:03.179Z,95733.00
2018-08-13T19:29:33.389Z,95736.00
2018-08-13T19:32:03.604Z,95725.00
2018-08-13T19:34:33.749Z,95727.00
2018-08-13T19:37:03.981Z,95729.00
2018-08-13T19:39:34.153Z,95728.00
2018-08-13T19:42:04.492Z,95736.00
2018-08-13T19:44:34.811Z,95735.00
2018-08-13T19:47:05.758Z,95727.00
2018-08-13T19:49:35.965Z,95726.00
2018-08-13T19:52:07.190Z,95715.00
2018-08-13T19:54:37.781Z,95718.00
2018-08-13T19:57:10.919Z,95719.00
2018-08-13T19:59:41.068Z,95721.00
2018-08-13T20:02:11.427Z,95714.00
2018-08-13T20:04:41.719Z,95728.00
2018-08-13T20:07:11.854Z,95724.00
2018-08-13T20:09:42.291Z,95717.00
2018-08-13T20:12:12.533Z,95719.00
2018-08-13T20:14:42.668Z,95728.00
2018-08-13T20:17:12.829Z,95709.00
2018-08-13T20:19:43.076Z,95721.00
2018-08-13T20:22:15.600Z,95711.00
2018-08-13T20:24:45.795Z,95706.00
2018-08-13T20:27:15.921Z,95714.00
2018-08-13T20:29:46.081Z,95721.00
2018-08-13T20:32:16.242Z,95717.00
2018-08-13T20:34:46.384Z,95717.00
2018-08-13T20:37:16.545Z,95721.00
2018-08-13T20:39:46.693Z,95731.00
2018-08-13T20:42:16.881Z,95736.00
2018-08-13T20:44:47.062Z,95736.00
2018-08-13T20:47:17.241Z,95738.00
2018-08-13T20:49:47.424Z,95729.00
2018-08-13T20:52:17.600Z,95732.00
2018-08-13T20:54:47.752Z,95732.00
2018-08-13T20:57:17.884Z,95730.00
2018-08-13T20:59:48.060Z,95722.00
2018-08-13T21:02:18.468Z,95711.00
2018-08-13T21:04:48.664Z,95717.00
2018-08-13T21:07:18.821Z,95705.00
2018-08-13T21:09:49.074Z,95709.00
2018-08-13T21:12:19.196Z,95695.00
2018-08-13T21:14:49.441Z,95693.00
2018-08-13T21:17:19.628Z,95697.00
2018-08-13T21:19:49.809Z,95697.00
2018-08-13T21:22:19.960Z,95696.00
2018-08-13T21:24:50.073Z,95689.00
2018-08-13T21:27:20.224Z,95695.00
2018-08-13T21:29:50.448Z,95699.00
2018-08-13T21:32:20.669Z,95692.00
2018-08-13T21:34:50.900Z,95696.00
2018-08-13T21:37:21.100Z,95692.00
2018-08-13T21:39:51.221Z,95697.00
2018-08-13T21:42:21.393Z,95695.00
2018-08-13T21:44:51.514Z,95701.00
2018-08-13T21:47:21.648Z,95700.00
2018-08-13T21:49:51.808Z,95706.00
2018-08-13T21:52:22.024Z,95701.00
2018-08-13T21:54:52.272Z,95714.00
2018-08-13T21:57:24.660Z,95703.00
2018-08-13T21:59:55.924Z,95721.00
2018-08-13T22:02:26.052Z,95716.00
2018-08-13T22:04:56.238Z,95721.00
2018-08-13T22:07:26.700Z,95722.00
2018-08-13T22:09:56.838Z,95723.00
2018-08-13T22:12:27.024Z,95718.00
2018-08-13T22:14:57.245Z,95726.00
2018-08-13T22:17:34.045Z,95725.00
2018-08-13T22:20:04.476Z,95732.00
2018-08-13T22:22:34.607Z,95721.00
2018-08-13T22:25:06.314Z,95734.00
2018-08-13T22:27:36.473Z,95740.00
2018-08-13T22:30:08.920Z,95735.00
2018-08-13T22:32:39.145Z,95738.00
2018-08-13T22:35:10.821Z,95747.00
2018-08-13T22:37:41.871Z,95749.00
2018-08-13T22:40:17.657Z,95759.00
2018-08-13T22:42:47.901Z,95760.00
2018-08-13T22:45:23.028Z,95755.00
2018-08-13T22:47:53.199Z,95750.00
2018-08-13T22:50:23.404Z,95746.00
2018-08-13T22:52:53.561Z,95747.00
2018-08-13T22:55:23.748Z,95756.00
2018-08-13T22:57:53.931Z,95767.00
2018-08-13T23:00:24.776Z,95763.00
2018-08-13T23:02:54.997Z,95752.00
2018-08-13T23:05:26.737Z,95758.00
2018-08-13T23:07:56.912Z,95765.00
2018-08-13T23:10:27.047Z,95774.00
2018-08-13T23:12:57.567Z,95765.00
2018-08-13T23:15:27.700Z,95766.00
2018-08-13T23:17:57.844Z,95763.00
2018-08-13T23:20:29.526Z,95770.00
2018-08-13T23:23:00.837Z,95775.00
2018-08-13T23:25:32.176Z,95780.00
2018-08-13T23:28:04.026Z,95781.00
2018-08-13T23:30:34.953Z,95781.00
2018-08-13T23:33:06.787Z,95791.00
2018-08-13T23:35:37.024Z,95779.00
2018-08-13T23:38:08.460Z,95791.00
2018-08-13T23:40:38.644Z,95778.00
2018-08-13T23:43:08.832Z,95785.00
2018-08-13T23:45:39.104Z,95781.00
2018-08-13T23:48:09.268Z,95782.00
2018-08-13T23:50:39.467Z,95772.00
2018-08-13T23:53:09.676Z,95778.00
2018-08-13T23:55:40.572Z,95780.00
2018-08-13T23:58:13.536Z,95775.00
